createdAt,value
2023-10-29T00:00:58.770Z,82.42
2023-10-29T00:03:26.751Z,83.17
2023-10-29T00:05:54.746Z,82.40
2023-10-29T00:08:22.521Z,81.78
2023-10-29T00:10:51.216Z,83.17
2023-10-29T00:13:18.813Z,84.23
2023-10-29T00:15:46.488Z,82.75
2023-10-29T00:18:14.285Z,82.39
2023-10-29T00:20:42.084Z,83.50
2023-10-29T00:23:09.762Z,84.18
2023-10-29T00:25:37.393Z,83.66
2023-10-29T00:28:05.261Z,84.25
2023-10-29T00:30:34.508Z,85.41
2023-10-29T00:33:02.367Z,85.68
2023-10-29T00:35:30.110Z,85.58
2023-10-29T00:37:58.079Z,87.91
2023-10-29T00:40:27.338Z,87.00
2023-10-29T00:42:54.950Z,87.54
2023-10-29T00:45:22.666Z,88.28
2023-10-29T00:47:51.135Z,87.72
2023-10-29T00:50:19.046Z,87.90
2023-10-29T00:52:47.282Z,87.86
2023-10-29T00:55:15.604Z,87.18
2023-10-29T00:57:43.422Z,87.87
2023-10-29T01:00:12.021Z,87.66
2023-10-29T01:02:39.840Z,87.66
2023-10-29T01:05:08.498Z,88.28
2023-10-29T01:07:36.165Z,86.90
2023-10-29T01:10:03.981Z,87.84
2023-10-29T01:12:31.558Z,87.38
2023-10-29T01:14:59.326Z,87.70
2023-10-29T01:17:27.045Z,88.22
2023-10-29T01:19:54.736Z,88.49
2023-10-29T01:22:23.407Z,88.00
2023-10-29T01:24:51.094Z,87.47
2023-10-29T01:27:19.854Z,86.88
2023-10-29T01:29:47.579Z,87.32
2023-10-29T01:32:15.453Z,87.23
2023-10-29T01:34:43.412Z,87.65
2023-10-29T01:37:11.088Z,88.14
2023-10-29T01:39:38.729Z,87.54
2023-10-29T01:42:06.691Z,87.83
2023-10-29T01:44:34.876Z,87.23
2023-10-29T01:47:02.511Z,87.18
2023-10-29T01:49:30.084Z,86.83
2023-10-29T01:51:57.982Z,86.90
2023-10-29T01:54:25.639Z,86.59
2023-10-29T01:56:53.337Z,86.60
2023-10-29T01:59:21.063Z,87.47
2023-10-29T02:01:48.719Z,88.17
2023-10-29T02:04:16.403Z,87.69
2023-10-29T02:06:44.056Z,87.63
2023-10-29T02:09:13.691Z,87.95
2023-10-29T02:11:42.099Z,88.22
2023-10-29T02:14:11.418Z,88.21
2023-10-29T02:16:39.068Z,88.33
2023-10-29T02:19:06.835Z,87.91
2023-10-29T02:21:37.911Z,88.26
2023-10-29T02:24:05.938Z,88.28
2023-10-29T02:26:34.623Z,88.59
2023-10-29T02:29:02.281Z,88.40
2023-10-29T02:31:30.040Z,88.12
2023-10-29T02:33:57.674Z,87.19
2023-10-29T02:36:25.339Z,85.81
2023-10-29T02:38:52.992Z,85.39
2023-10-29T02:41:21.089Z,84.66
2023-10-29T02:43:48.640Z,85.26
2023-10-29T02:46:16.412Z,86.39
2023-10-29T02:48:44.060Z,86.40
2023-10-29T02:51:14.760Z,85.70
2023-10-29T02:53:42.975Z,86.22
2023-10-29T02:56:10.644Z,86.36
2023-10-29T02:58:38.386Z,87.34
2023-10-29T03:01:08.460Z,87.92
2023-10-29T03:03:39.897Z,88.35
2023-10-29T03:06:09.919Z,89.10
2023-10-29T03:08:38.471Z,87.04
2023-10-29T03:11:06.103Z,85.94
2023-10-29T03:13:33.903Z,82.57
2023-10-29T03:16:01.696Z,81.55
2023-10-29T03:18:30.798Z,83.39
2023-10-29T03:20:58.541Z,84.09
2023-10-29T03:23:26.369Z,84.14
2023-10-29T03:26:00.459Z,85.59
2023-10-29T03:28:28.114Z,86.36
2023-10-29T03:30:56.394Z,86.37
2023-10-29T03:33:24.044Z,87.13
2023-10-29T03:35:51.898Z,87.94
2023-10-29T03:38:19.718Z,87.97
2023-10-29T03:40:47.353Z,87.25
2023-10-29T03:43:14.961Z,87.26
2023-10-29T03:45:42.608Z,87.84
2023-10-29T03:48:10.525Z,87.49
2023-10-29T03:50:38.163Z,87.61
2023-10-29T03:53:05.931Z,87.82
2023-10-29T03:55:34.213Z,87.74
2023-10-29T03:58:01.885Z,88.06
2023-10-29T04:00:30.064Z,88.43
2023-10-29T04:02:59.746Z,88.69
2023-10-29T04:05:28.770Z,88.73
2023-10-29T04:07:59.326Z,89.94
2023-10-29T04:10:26.950Z,89.33
2023-10-29T04:12:54.673Z,89.20
2023-10-29T04:15:22.596Z,89.71
2023-10-29T04:17:51.798Z,90.43
2023-10-29T04:20:19.558Z,89.72
2023-10-29T04:22:47.197Z,89.43
2023-10-29T04:25:14.881Z,91.24
2023-10-29T04:27:42.547Z,91.55
2023-10-29T04:30:10.860Z,91.94
2023-10-29T04:32:38.626Z,91.69
2023-10-29T04:35:07.018Z,90.95
2023-10-29T04:37:34.664Z,91.05
2023-10-29T04:40:02.378Z,91.42
2023-10-29T04:42:30.122Z,89.95
2023-10-29T04:44:57.779Z,90.35
2023-10-29T04:47:25.352Z,90.34
2023-10-29T04:49:52.988Z,90.25
2023-10-29T04:52:20.650Z,89.86
2023-10-29T04:54:48.677Z,90.02
2023-10-29T04:57:16.573Z,89.90
2023-10-29T04:59:44.262Z,89.59
2023-10-29T05:02:11.908Z,90.27
2023-10-29T05:04:40.546Z,90.36
2023-10-29T05:07:09.553Z,91.20
2023-10-29T05:09:37.467Z,90.39
2023-10-29T05:12:08.327Z,90.95
2023-10-29T05:14:35.975Z,92.04
2023-10-29T05:17:04.372Z,92.68
2023-10-29T05:19:32.747Z,89.70
2023-10-29T05:22:00.434Z,87.17
2023-10-29T05:24:28.321Z,87.39
2023-10-29T05:26:55.965Z,87.20
2023-10-29T05:29:23.662Z,88.73
2023-10-29T05:31:51.289Z,90.16
2023-10-29T05:34:19.010Z,89.88
2023-10-29T05:36:47.132Z,89.64
2023-10-29T05:39:16.141Z,88.77
2023-10-29T05:41:43.910Z,90.28
2023-10-29T05:44:11.699Z,91.05
2023-10-29T05:46:40.617Z,92.21
2023-10-29T05:49:09.613Z,91.59
2023-10-29T05:51:38.626Z,90.34
2023-10-29T05:54:08.783Z,90.32
2023-10-29T05:56:36.701Z,89.44
2023-10-29T05:59:05.937Z,88.24
2023-10-29T06:01:42.764Z,86.66
2023-10-29T06:04:38.169Z,83.16
2023-10-29T06:07:06.396Z,81.83
2023-10-29T06:09:35.801Z,83.32
2023-10-29T06:12:06.203Z,85.03
2023-10-29T06:14:35.555Z,84.45
2023-10-29T06:17:11.950Z,83.20
2023-10-29T06:19:47.507Z,85.38
2023-10-29T06:22:15.278Z,86.49
2023-10-29T06:24:43.112Z,86.24
2023-10-29T06:27:12.320Z,85.30
2023-10-29T06:29:40.275Z,86.94
2023-10-29T06:32:10.051Z,87.63
2023-10-29T06:34:39.758Z,89.23
2023-10-29T06:37:08.516Z,89.57
2023-10-29T06:39:38.967Z,89.52
2023-10-29T06:42:08.183Z,87.23
2023-10-29T06:44:36.473Z,85.76
2023-10-29T06:47:08.286Z,83.07
2023-10-29T06:49:36.479Z,82.51
2023-10-29T06:52:04.368Z,82.54
2023-10-29T06:54:32.287Z,82.16
2023-10-29T06:57:03.141Z,80.30
2023-10-29T06:59:34.838Z,79.42
2023-10-29T07:02:02.888Z,80.82
2023-10-29T07:04:32.856Z,81.52
2023-10-29T07:07:00.760Z,82.57
2023-10-29T07:09:28.932Z,82.55
2023-10-29T07:11:56.881Z,80.94
2023-10-29T07:14:24.782Z,78.84
2023-10-29T07:16:53.093Z,77.37
2023-10-29T07:19:26.527Z,77.52
2023-10-29T07:21:55.262Z,75.86
2023-10-29T07:24:24.914Z,74.84
2023-10-29T07:26:55.751Z,74.45
2023-10-29T07:29:24.005Z,73.30
2023-10-29T07:31:54.380Z,72.32
2023-10-29T07:34:28.995Z,70.42
2023-10-29T07:36:56.754Z,71.65
2023-10-29T07:39:24.745Z,70.68
2023-10-29T07:41:53.493Z,71.84
2023-10-29T07:44:23.110Z,73.13
2023-10-29T07:46:54.698Z,72.05
2023-10-29T07:49:29.662Z,71.82
2023-10-29T07:51:58.470Z,71.90
2023-10-29T07:54:26.183Z,70.27
2023-10-29T07:56:54.625Z,68.93
2023-10-29T07:59:22.760Z,69.16
2023-10-29T08:01:51.017Z,68.11
2023-10-29T08:04:18.929Z,66.17
2023-10-29T08:06:47.579Z,65.87
2023-10-29T08:09:17.734Z,65.08
2023-10-29T08:11:45.767Z,64.14
2023-10-29T08:14:14.306Z,63.16
2023-10-29T08:16:42.940Z,63.38
2023-10-29T08:19:10.675Z,62.69
2023-10-29T08:21:38.475Z,60.14
2023-10-29T08:24:06.711Z,60.17
2023-10-29T08:26:34.818Z,58.63
2023-10-29T08:29:02.560Z,57.24
2023-10-29T08:31:30.291Z,57.73
2023-10-29T08:33:58.150Z,56.53
2023-10-29T08:36:26.267Z,56.20
2023-10-29T08:38:55.517Z,55.62
2023-10-29T08:41:24.064Z,54.74
2023-10-29T08:46:22.234Z,52.85
2023-10-29T08:48:54.545Z,52.67
2023-10-29T08:51:22.571Z,51.47
2023-10-29T08:53:50.908Z,50.48
2023-10-29T08:56:18.630Z,49.74
2023-10-29T08:58:46.339Z,48.06
2023-10-29T09:01:14.921Z,49.30
2023-10-29T09:03:44.522Z,48.41
2023-10-29T09:06:14.219Z,48.13
2023-10-29T09:08:42.541Z,48.85
2023-10-29T09:11:17.597Z,47.39
2023-10-29T09:13:45.410Z,47.04
2023-10-29T09:16:13.578Z,47.71
2023-10-29T09:18:41.947Z,47.04
2023-10-29T09:21:10.732Z,46.82
2023-10-29T09:23:39.082Z,45.00
2023-10-29T09:26:09.321Z,45.64
2023-10-29T09:28:36.944Z,46.78
2023-10-29T09:31:05.450Z,46.93
2023-10-29T09:33:34.416Z,44.65
2023-10-29T09:36:02.131Z,44.17
2023-10-29T09:38:29.763Z,42.60
2023-10-29T09:40:57.493Z,42.32
2023-10-29T09:43:33.064Z,42.37
2023-10-29T09:46:07.210Z,42.24
2023-10-29T09:48:40.103Z,40.74
2023-10-29T09:51:09.257Z,40.36
2023-10-29T09:53:38.979Z,41.52
2023-10-29T09:56:14.182Z,40.62
2023-10-29T09:58:41.887Z,39.81
2023-10-29T10:01:09.990Z,39.86
2023-10-29T10:03:39.314Z,39.05
2023-10-29T10:06:08.693Z,38.41
2023-10-29T10:08:36.334Z,39.25
2023-10-29T10:11:04.314Z,39.38
2023-10-29T10:13:43.166Z,38.56
2023-10-29T10:16:14.698Z,37.72
2023-10-29T10:18:57.387Z,37.93
2023-10-29T10:21:49.502Z,38.55
2023-10-29T10:24:17.506Z,39.17
2023-10-29T10:26:47.726Z,38.84
2023-10-29T10:29:15.811Z,37.07
2023-10-29T10:31:43.571Z,37.29
2023-10-29T10:34:16.556Z,38.87
2023-10-29T10:36:46.060Z,39.00
2023-10-29T10:39:14.902Z,38.33
2023-10-29T10:41:52.991Z,37.35
2023-10-29T10:44:22.844Z,36.72
2023-10-29T10:46:53.717Z,36.71
2023-10-29T10:49:22.645Z,36.63
2023-10-29T10:52:04.174Z,36.35
2023-10-29T10:54:34.629Z,36.43
2023-10-29T10:57:08.175Z,37.15
2023-10-29T10:59:37.174Z,35.09
2023-10-29T11:02:11.263Z,35.58
2023-10-29T11:04:40.395Z,34.88
2023-10-29T11:07:10.539Z,35.25
2023-10-29T11:09:41.335Z,34.87
2023-10-29T11:12:13.882Z,35.30
2023-10-29T11:15:33.200Z,33.63
2023-10-29T11:18:03.145Z,32.69
2023-10-29T11:20:57.614Z,33.74
2023-10-29T11:23:33.993Z,34.58
2023-10-29T11:26:24.956Z,32.92
2023-10-29T11:28:56.407Z,32.18
2023-10-29T11:31:34.153Z,31.78
2023-10-29T11:34:34.647Z,31.11
2023-10-29T11:37:03.806Z,29.85
2023-10-29T11:39:32.906Z,31.04
2023-10-29T11:42:01.129Z,30.33
2023-10-29T11:44:34.155Z,31.65
2023-10-29T11:47:03.346Z,30.42
2023-10-29T11:49:38.474Z,30.77
2023-10-29T11:52:07.585Z,30.72
2023-10-29T11:54:39.306Z,31.20
2023-10-29T11:57:11.857Z,30.54
2023-10-29T11:59:56.743Z,30.64
2023-10-29T12:02:27.061Z,30.33
2023-10-29T12:04:54.925Z,30.79
2023-10-29T12:07:29.420Z,30.15
2023-10-29T12:10:03.829Z,30.15
2023-10-29T12:12:31.541Z,29.77
2023-10-29T12:14:59.826Z,29.48
2023-10-29T12:17:29.004Z,30.12
2023-10-29T12:19:58.028Z,29.75
2023-10-29T12:22:28.882Z,29.23
2023-10-29T12:25:01.951Z,28.70
2023-10-29T12:27:31.523Z,28.90
2023-10-29T12:29:59.802Z,29.26
2023-10-29T12:32:30.517Z,29.27
2023-10-29T12:35:00.796Z,29.49
2023-10-29T12:37:32.647Z,30.28
2023-10-29T12:40:04.435Z,30.28
2023-10-29T12:42:54.054Z,29.74
2023-10-29T12:45:32.836Z,29.00
2023-10-29T12:48:18.572Z,29.36
2023-10-29T12:50:51.939Z,29.21
2023-10-29T12:53:28.522Z,29.76
2023-10-29T12:56:00.420Z,28.67
2023-10-29T12:58:32.359Z,28.54
2023-10-29T13:01:01.331Z,29.64
2023-10-29T13:03:29.446Z,28.99
2023-10-29T13:05:57.603Z,28.41
2023-10-29T13:08:26.784Z,29.11
2023-10-29T13:10:54.829Z,27.50
2023-10-29T13:13:25.684Z,28.32
2023-10-29T13:15:53.843Z,28.45
2023-10-29T13:18:23.677Z,29.15
2023-10-29T13:21:03.967Z,28.43
2023-10-29T13:23:31.649Z,28.40
2023-10-29T13:25:59.552Z,28.69
2023-10-29T13:28:27.175Z,28.43
2023-10-29T13:30:56.523Z,27.29
2023-10-29T13:33:25.741Z,26.20
2023-10-29T13:35:53.848Z,26.96
2023-10-29T13:38:21.733Z,26.54
2023-10-29T13:40:49.430Z,26.52
2023-10-29T13:43:17.351Z,26.83
2023-10-29T13:45:57.108Z,26.06
2023-10-29T13:48:25.070Z,25.38
2023-10-29T13:50:54.829Z,26.66
2023-10-29T13:53:25.772Z,26.88
2023-10-29T13:55:54.965Z,27.54
2023-10-29T13:58:22.655Z,27.28
2023-10-29T14:00:50.393Z,27.24
2023-10-29T14:03:18.070Z,28.41
2023-10-29T14:05:48.105Z,28.12
2023-10-29T14:08:15.745Z,28.68
2023-10-29T14:10:43.715Z,28.48
2023-10-29T14:13:12.801Z,28.19
2023-10-29T14:15:41.243Z,28.31
2023-10-29T14:18:09.427Z,27.95
2023-10-29T14:20:39.467Z,28.42
2023-10-29T14:23:07.261Z,28.08
2023-10-29T14:25:34.885Z,29.14
2023-10-29T14:28:02.877Z,28.97
2023-10-29T14:30:33.890Z,28.77
2023-10-29T14:33:02.411Z,28.55
2023-10-29T14:35:30.372Z,28.92
2023-10-29T14:37:57.974Z,30.35
2023-10-29T14:40:28.554Z,29.45
2023-10-29T14:43:20.326Z,29.51
2023-10-29T14:45:54.100Z,29.39
2023-10-29T14:48:22.875Z,29.94
2023-10-29T14:50:53.165Z,30.41
2023-10-29T14:53:23.496Z,30.97
2023-10-29T14:55:51.411Z,31.95
2023-10-29T14:58:20.495Z,33.36
2023-10-29T15:00:48.484Z,35.10
2023-10-29T15:03:17.463Z,36.07
2023-10-29T15:05:45.253Z,36.42
2023-10-29T15:08:12.893Z,37.12
2023-10-29T15:10:40.581Z,37.21
2023-10-29T15:13:09.137Z,38.92
2023-10-29T15:15:39.203Z,39.39
2023-10-29T15:18:07.015Z,39.81
2023-10-29T15:20:38.922Z,40.78
2023-10-29T15:23:10.398Z,41.83
2023-10-29T15:25:43.997Z,41.44
2023-10-29T15:28:11.900Z,42.05
2023-10-29T15:30:39.881Z,42.65
2023-10-29T15:33:08.351Z,43.86
2023-10-29T15:35:38.036Z,44.68
2023-10-29T15:38:06.705Z,43.80
2023-10-29T15:40:35.380Z,44.65
2023-10-29T15:43:03.427Z,44.41
2023-10-29T15:45:33.066Z,44.26
2023-10-29T15:48:01.854Z,44.10
2023-10-29T15:50:29.725Z,45.03
2023-10-29T15:52:59.943Z,46.04
2023-10-29T15:55:30.664Z,47.20
2023-10-29T15:58:00.077Z,46.83
2023-10-29T16:00:30.628Z,47.28
2023-10-29T16:03:01.104Z,47.16
2023-10-29T16:05:35.941Z,48.23
2023-10-29T16:08:06.995Z,49.00
2023-10-29T16:10:38.156Z,48.71
2023-10-29T16:13:06.516Z,48.42
2023-10-29T16:15:34.769Z,48.77
2023-10-29T16:18:03.474Z,48.57
2023-10-29T16:20:33.680Z,48.73
2023-10-29T16:23:07.037Z,48.74
2023-10-29T16:25:37.559Z,48.90
2023-10-29T16:28:06.729Z,48.59
2023-10-29T16:30:35.801Z,48.55
2023-10-29T16:33:05.043Z,48.58
2023-10-29T16:35:33.766Z,49.38
2023-10-29T16:38:03.787Z,49.14
2023-10-29T16:40:32.087Z,49.02
2023-10-29T16:43:00.268Z,49.76
2023-10-29T16:45:29.670Z,49.71
2023-10-29T16:47:58.789Z,49.96
2023-10-29T16:50:27.294Z,50.31
2023-10-29T16:52:58.198Z,50.53
2023-10-29T16:55:26.224Z,50.67
2023-10-29T16:57:54.138Z,51.53
2023-10-29T17:00:25.898Z,51.51
2023-10-29T17:02:56.940Z,51.76
2023-10-29T17:05:26.389Z,52.13
2023-10-29T17:07:56.046Z,52.54
2023-10-29T17:10:25.486Z,53.09
2023-10-29T17:13:03.178Z,53.13
2023-10-29T17:15:40.018Z,53.54
2023-10-29T17:18:11.297Z,53.72
2023-10-29T17:20:43.691Z,53.70
2023-10-29T17:23:27.303Z,53.90
2023-10-29T17:25:58.735Z,54.39
2023-10-29T17:28:30.425Z,54.65
2023-10-29T17:31:07.917Z,54.93
2023-10-29T17:33:36.685Z,54.75
2023-10-29T17:36:17.992Z,55.46
2023-10-29T17:38:50.374Z,55.83
2023-10-29T17:41:23.542Z,55.72
2023-10-29T17:43:54.719Z,55.65
2023-10-29T17:46:25.492Z,55.69
2023-10-29T17:49:01.604Z,56.02
2023-10-29T17:51:30.568Z,55.69
2023-10-29T17:54:02.478Z,56.28
2023-10-29T17:56:36.052Z,56.85
2023-10-29T17:59:07.018Z,57.08
2023-10-29T18:01:37.502Z,56.91
2023-10-29T18:04:09.924Z,54.13
2023-10-29T18:06:43.651Z,55.73
2023-10-29T18:09:14.090Z,55.10
2023-10-29T18:11:43.815Z,55.58
2023-10-29T18:14:12.840Z,55.47
2023-10-29T18:16:48.641Z,56.66
2023-10-29T18:19:21.505Z,57.65
2023-10-29T18:21:54.779Z,58.80
2023-10-29T18:24:25.167Z,59.81
2023-10-29T18:26:54.505Z,61.15
2023-10-29T18:29:26.923Z,62.08
2023-10-29T18:31:57.380Z,61.97
2023-10-29T18:34:30.063Z,63.38
2023-10-29T18:37:02.625Z,63.02
2023-10-29T18:39:35.685Z,63.01
2023-10-29T18:42:06.085Z,64.07
2023-10-29T18:44:34.455Z,65.19
2023-10-29T18:47:11.056Z,65.10
2023-10-29T18:49:40.656Z,65.29
2023-10-29T18:52:11.334Z,65.16
2023-10-29T18:54:43.565Z,64.51
2023-10-29T18:57:37.151Z,64.96
2023-10-29T19:00:16.087Z,65.34
2023-10-29T19:02:44.919Z,65.82
2023-10-29T19:05:34.484Z,66.15
2023-10-29T19:08:10.086Z,66.99
2023-10-29T19:10:42.081Z,66.80
2023-10-29T19:13:13.075Z,66.26
2023-10-29T19:15:42.304Z,66.61
2023-10-29T19:18:15.026Z,66.99
2023-10-29T19:20:44.115Z,66.88
2023-10-29T19:23:14.017Z,67.48
2023-10-29T19:25:46.038Z,66.46
2023-10-29T19:28:21.292Z,66.58
2023-10-29T19:31:15.821Z,66.39
2023-10-29T19:33:46.740Z,66.88
2023-10-29T19:36:17.295Z,67.31
2023-10-29T19:38:46.788Z,67.56
2023-10-29T19:41:16.587Z,67.89
2023-10-29T19:43:50.837Z,68.00
2023-10-29T19:46:22.140Z,67.75
2023-10-29T19:48:50.701Z,68.32
2023-10-29T19:51:21.482Z,68.44
2023-10-29T19:53:51.086Z,68.80
2023-10-29T19:56:19.947Z,69.14
2023-10-29T19:58:50.310Z,69.83
2023-10-29T20:01:21.448Z,70.02
2023-10-29T20:03:50.905Z,70.03
2023-10-29T20:06:19.010Z,70.09
2023-10-29T20:08:47.465Z,70.83
2023-10-29T20:11:17.627Z,70.61
2023-10-29T20:14:10.948Z,70.48
2023-10-29T20:16:41.192Z,71.19
2023-10-29T20:19:09.215Z,70.28
2023-10-29T20:21:38.032Z,70.83
2023-10-29T20:24:11.270Z,71.70
2023-10-29T20:26:41.372Z,72.38
2023-10-29T20:29:10.437Z,71.70
2023-10-29T20:31:39.104Z,72.25
2023-10-29T20:34:07.918Z,71.99
2023-10-29T20:36:38.100Z,72.22
2023-10-29T20:39:06.099Z,71.10
2023-10-29T20:41:55.505Z,70.61
2023-10-29T20:44:23.318Z,71.05
2023-10-29T20:46:55.983Z,70.95
2023-10-29T20:49:24.778Z,70.22
2023-10-29T20:51:52.982Z,71.54
2023-10-29T20:54:25.131Z,72.49
2023-10-29T20:56:53.452Z,72.90
2023-10-29T20:59:23.781Z,73.43
2023-10-29T21:01:51.739Z,74.39
2023-10-29T21:04:25.827Z,74.23
2023-10-29T21:06:57.080Z,73.38
2023-10-29T21:09:24.942Z,73.72
2023-10-29T21:11:59.200Z,74.15
2023-10-29T21:14:27.081Z,74.55
2023-10-29T21:16:57.776Z,74.17
2023-10-29T21:19:30.648Z,73.85
2023-10-29T21:22:01.601Z,74.08
2023-10-29T21:24:30.179Z,74.16
2023-10-29T21:26:59.403Z,74.20
2023-10-29T21:29:30.552Z,74.02
2023-10-29T21:31:58.219Z,74.77
2023-10-29T21:34:27.036Z,74.64
2023-10-29T21:36:57.734Z,75.17
2023-10-29T21:39:26.001Z,75.11
2023-10-29T21:41:54.315Z,76.36
2023-10-29T21:44:22.059Z,75.64
2023-10-29T21:46:49.657Z,75.60
2023-10-29T21:49:17.436Z,75.62
2023-10-29T21:51:45.032Z,75.60
2023-10-29T21:54:12.766Z,76.10
2023-10-29T21:56:40.460Z,75.74
2023-10-29T21:59:09.305Z,76.23
2023-10-29T22:01:39.974Z,74.95
2023-10-29T22:04:07.667Z,65.14
2023-10-29T22:06:35.544Z,67.95
2023-10-29T22:09:03.550Z,72.35
2023-10-29T22:11:31.233Z,74.10
2023-10-29T22:13:58.881Z,75.38
2023-10-29T22:16:26.793Z,76.52
2023-10-29T22:18:54.534Z,77.37
2023-10-29T22:21:22.223Z,77.88
2023-10-29T22:23:49.907Z,78.24
2023-10-29T22:26:17.597Z,78.89
2023-10-29T22:28:45.485Z,78.70
2023-10-29T22:31:16.112Z,78.40
2023-10-29T22:33:45.243Z,78.20
2023-10-29T22:36:15.527Z,79.16
2023-10-29T22:38:43.281Z,79.18
2023-10-29T22:41:15.731Z,79.48
2023-10-29T22:43:44.684Z,79.65
2023-10-29T22:46:20.827Z,79.41
2023-10-29T22:48:50.982Z,79.94
2023-10-29T22:51:19.920Z,79.55
2023-10-29T22:53:47.955Z,79.96
2023-10-29T22:56:17.093Z,79.76
2023-10-29T22:58:47.829Z,79.86
2023-10-29T23:01:17.737Z,80.44
2023-10-29T23:03:48.217Z,80.54
2023-10-29T23:06:17.719Z,80.18
2023-10-29T23:08:51.461Z,79.88
2023-10-29T23:11:21.302Z,79.63
2023-10-29T23:13:49.401Z,80.27
2023-10-29T23:16:17.839Z,80.48
2023-10-29T23:18:49.564Z,80.95
2023-10-29T23:21:17.440Z,80.57
2023-10-29T23:23:46.286Z,81.39
2023-10-29T23:26:14.140Z,81.11
2023-10-29T23:28:44.499Z,80.87
2023-10-29T23:31:14.843Z,81.33
2023-10-29T23:33:42.763Z,81.32
2023-10-29T23:36:11.224Z,82.32
2023-10-29T23:38:43.143Z,82.96
2023-10-29T23:41:11.896Z,82.38
2023-10-29T23:43:39.870Z,81.82
2023-10-29T23:46:08.657Z,81.55
2023-10-29T23:48:36.423Z,80.80
2023-10-29T23:51:05.944Z,80.95
2023-10-29T23:53:33.839Z,80.72
2023-10-29T23:56:01.565Z,80.50
2023-10-29T23:58:33.103Z,80.70
